• Join FlightAware (Why Join?)
  • Login
  • US Flag 
08:56AM EDT


 

Airport Tracker/Info


-or-


 

Live Flight TrackerFlight Track Log ✈ ASQ5685 ✈ 09-Jun-2013 ✈ KATL - KIAD

Flight Track Log - Related Links

Times and Time Zones

All times are in EDT time to prevent confusion due to time zone crossing. See the ASQ5685 flight status page for this flight to view local times or setup timezone preferences in your user account.

Time Position Orientation Groundspeed Altitude Reporting Facility
EDT Latitude Longitude Course Direction KTS MPH feet Rate Location/Type
09:24AM 33.6117 -84.5253 53° Northeast 385 443 3,100  Level Atlanta Center
09:25AM 33.5833 -84.5833 240° Southwest 262 302 5,300 2,640 Climbing Atlanta TRACON
09:26AM 33.8588 -84.1639 73° East  Level Estimated
09:26AM 33.5000 -84.5833 180° South 253 291 7,800  Level Atlanta TRACON
09:27AM 33.9328 -84.0756 54° Northeast  Level Estimated
09:28AM 33.9055 -83.9546 105° East  Level FlightAware Approximate
09:28AM 33.4536 -84.4047 107° East 302 348 11,200  Level Atlanta Center
09:29AM 33.9802 -83.8671 48° Northeast  Level Estimated
09:29AM 33.4622 -84.2878 85° East 339 390 12,500  Level Atlanta Center
09:30AM 34.0548 -83.7796 53° Northeast  Level Estimated
09:30AM 33.5458 -84.2183 35° Northeast 332 382 14,000  Level Atlanta Center
09:31AM 33.6378 -84.1561 29° Northeast 350 403 15,400 1,200 Climbing Atlanta Center
09:32AM 33.7336 -84.0914 29° Northeast 378 435 16,500 1,080 Climbing Atlanta Center
09:33AM 33.7942 -83.9814 56° Northeast 378 435 17,600 900 Climbing Atlanta Center
09:34AM 33.8506 -83.8661 59° Northeast 383 441 18,400 840 Climbing Atlanta Center
09:35AM 33.9086 -83.7508 59° Northeast 395 455 19,300 780 Climbing Atlanta Center
09:36AM 33.9772 -83.6381 54° Northeast 409 471 20,000 660 Climbing Atlanta Center
09:37AM 34.0478 -83.5275 52° Northeast 409 471 20,700 720 Climbing Atlanta Center
09:38AM 34.1183 -83.4139 53° Northeast 415 478 21,500 720 Climbing Atlanta Center
09:39AM 34.1906 -83.3006 52° Northeast 420 483 22,200 600 Climbing Atlanta Center
09:40AM 34.2525 -83.1969 54° Northeast 420 483 22,800 600 Climbing Atlanta Center
09:41AM 34.3228 -83.0806 54° Northeast 425 489 23,500 660 Climbing Atlanta Center
09:42AM 34.3947 -82.9664 53° Northeast 425 489 24,200 660 Climbing Atlanta Center
09:43AM 34.4689 -82.8469 53° Northeast 430 495 24,900 660 Climbing Atlanta Center
09:44AM 34.5428 -82.7375 51° Northeast 430 495 25,600 660 Climbing Atlanta Center
09:45AM 34.6103 -82.6178 56° Northeast 430 495 26,300 660 Climbing Atlanta Center
09:46AM 34.6822 -82.5056 52° Northeast 424 488 27,000 300 Climbing Atlanta Center
09:47AM 34.7558 -82.3878 53° Northeast 424 488 27,000  Level Atlanta Center
09:48AM 34.8272 -82.2700 54° Northeast 424 488 27,000  Level Atlanta Center
09:49AM 34.9006 -82.1494 53° Northeast 431 496 27,000  Level Atlanta Center
09:50AM 34.9778 -82.0208 54° Northeast 436 502 27,000  Level Atlanta Center
09:51AM 35.0447 -81.9103 53° Northeast 436 502 27,000  Level Atlanta Center
09:52AM 35.1133 -81.7842 56° Northeast 441 507 27,000  Level Atlanta Center
09:53AM 35.1778 -81.6553 59° Northeast 441 507 27,000  Level Atlanta Center
09:54AM 35.2461 -81.5261 57° Northeast 441 507 27,000  Level Atlanta Center
09:55AM 35.3142 -81.3967 57° Northeast 446 513 27,000  Level Atlanta Center
09:56AM 35.3781 -81.2675 59° Northeast 446 513 27,000  Level Atlanta Center
09:57AM 35.4483 -81.1375 56° Northeast 451 519 27,000  Level Atlanta Center
09:58AM 35.5181 -81.0025 58° Northeast 457 526 27,000  Level Atlanta Center
09:59AM 35.5856 -80.8722 57° Northeast 457 526 27,000  Level Atlanta Center
10:00AM 35.6550 -80.7392 57° Northeast 463 533 27,000  Level Atlanta Center
10:01AM 35.7225 -80.6086 57° Northeast 458 527 27,000  Level Atlanta Center
10:02AM 35.7897 -80.4753 58° Northeast 458 527 27,000  Level Atlanta Center
10:03AM 35.8586 -80.3442 57° Northeast 458 527 27,000  Level Atlanta Center
10:06AM 36.0306 -80.0097 57° Northeast 458 527 27,000  Level Washington Center
10:07AM 36.1022 -79.8800 56° Northeast 453 521 27,000  Level Washington Center
10:08AM 36.1778 -79.7503 54° Northeast 453 521 27,000  Level Washington Center
10:09AM 36.2511 -79.6178 56° Northeast 458 527 27,000  Level Washington Center
10:10AM 36.3264 -79.4850 55° Northeast 458 527 27,000  Level Washington Center
10:11AM 36.3953 -79.3567 56° Northeast 458 527 27,000  Level Washington Center
10:12AM 36.4703 -79.2236 55° Northeast 458 527 27,000  Level Washington Center
10:13AM 36.5450 -79.0953 54° Northeast 458 527 27,000 -360 Level Washington Center
10:14AM 36.6197 -78.9639 55° Northeast 458 527 26,400 -840 Descending Washington Center
10:15AM 36.6836 -78.8397 57° Northeast 463 533 25,400 -720 Descending Washington Center
10:16AM 36.7539 -78.7106 56° Northeast 463 533 25,000 -240 Descending Washington Center
10:17AM 36.8347 -78.5683 55° Northeast 458 527 25,000  Level Washington Center
10:18AM 36.9117 -78.4961 37° Northeast 434 499 25,000  Level Washington Center
10:19AM 37.0372 -78.3942 33° Northeast 434 499 25,000  Level Washington Center
10:20AM 37.1411 -78.3119 32° Northeast 434 499 25,000  Level Washington Center
10:21AM 37.2325 -78.2369 33° Northeast 442 509 25,000 -240 Level Washington Center
10:22AM 37.3344 -78.1542 33° Northeast 442 509 24,600 -1,140 Descending Washington Center
10:23AM 37.4364 -78.0686 34° Northeast 442 509 22,800 -1,320 Descending Washington Center
10:24AM 37.5406 -77.9831 33° Northeast 442 509 22,000 -420 Descending Washington Center
10:25AM 37.6381 -77.9022 33° Northeast 442 509 22,000 -720 Level Washington Center
10:26AM 37.7333 -77.8236 33° Northeast 431 496 20,600 -1,920 Descending Washington Center
10:27AM 37.8286 -77.7397 35° Northeast 419 482 18,200 -2,280 Descending Washington Center
10:28AM 37.9281 -77.6611 32° Northeast 419 482 16,100 -2,340 Descending Washington Center
10:29AM 38.0192 -77.5792 35° Northeast 414 476 13,700 -2,400 Descending Washington Center
10:30AM 38.1100 -77.5103 31° Northeast 401 461 11,300 -1,860 Descending Washington Center
10:31AM 38.1922 -77.4436 33° Northeast 369 425 10,000 -840 Descending Washington Center
10:32AM 38.2700 -77.4033 22° Northeast 326 375 9,700 -1,020 Descending Washington Center
10:33AM 38.3517 -77.3814 12° North 305 351 8,000 -2,100 Descending Washington Center
10:34AM 38.4314 -77.3622 11° North 288 331 5,600 -2,040 Descending Washington Center
10:35AM 38.4975 -77.3956 338° Northwest 258 297 4,000 -840 Descending Washington Center
10:36AM 38.5614 -77.4450 329° Northwest 259 298 4,000  Level Washington Center
10:37AM 38.6364 -77.4442 360° North 253 291 4,000 -480 Level Washington Center
10:37AM 38.6833 -77.4333 10° North 276 318 3,400 -660 Descending Potomac TRACON
10:38AM 38.7500 -77.4333 360° North 271 312 3,100 -540 Descending Potomac TRACON
10:39AM 38.8167 -77.4333 360° North 236 272 2,400 -780 Descending Potomac TRACON